Terminal Aerodrome Forecast
Issued by NWS

Home | Current Version | Previous Version | Text Only | Print | Product List | Glossary On
Versions: 1 2 3 4 5 6 7 8 9 10 11 12 13 14 15 16 17 18 19 20 21
000
FTUS46 KHNX 310520
TAFVIS
TAF
KVIS 310520Z 3106/0106 00000KT 1 1/2SM BR OVC120
     FM311000 VRB03KT 1/4SM FG OVC001
     FM311900 00000KT 1SM BR OVC004
     FM312100 VRB03KT 3SM HZ SCT020
     FM010300 00000KT 2SM BR SKC=

USA.gov is the U.S. government's official web portal to all federal, state and local government web resources and services.